sensor_id;sensor_type;location;lat;lon;timestamp;temperature;humidity
5176;DHT22;2607;50.934;6.934;2023-02-26T00:00:13;1.90;99.90
5176;DHT22;2607;50.934;6.934;2023-02-26T00:02:42;1.90;99.90
5176;DHT22;2607;50.934;6.934;2023-02-26T00:05:10;1.90;99.90
5176;DHT22;2607;50.934;6.934;2023-02-26T00:07:37;1.90;99.90
5176;DHT22;2607;50.934;6.934;2023-02-26T00:10:04;1.90;99.90
5176;DHT22;2607;50.934;6.934;2023-02-26T00:12:31;1.90;99.90
5176;DHT22;2607;50.934;6.934;2023-02-26T00:14:57;1.90;99.90
5176;DHT22;2607;50.934;6.934;2023-02-26T00:17:52;1.90;99.90
5176;DHT22;2607;50.934;6.934;2023-02-26T00:20:20;2.00;99.90
5176;DHT22;2607;50.934;6.934;2023-02-26T00:22:46;2.00;99.90
5176;DHT22;2607;50.934;6.934;2023-02-26T00:25:11;2.00;99.90
5176;DHT22;2607;50.934;6.934;2023-02-26T00:27:37;2.00;99.90
5176;DHT22;2607;50.934;6.934;2023-02-26T00:30:08;2.00;99.90
5176;DHT22;2607;50.934;6.934;2023-02-26T00:32:34;2.00;99.90
5176;DHT22;2607;50.934;6.934;2023-02-26T00:35:01;2.00;99.90
5176;DHT22;2607;50.934;6.934;2023-02-26T00:37:30;2.00;99.90
5176;DHT22;2607;50.934;6.934;2023-02-26T00:42:33;2.10;99.90
5176;DHT22;2607;50.934;6.934;2023-02-26T00:44:59;2.10;99.90
5176;DHT22;2607;50.934;6.934;2023-02-26T00:47:54;2.10;99.90
5176;DHT22;2607;50.934;6.934;2023-02-26T00:50:22;2.10;99.90
5176;DHT22;2607;50.934;6.934;2023-02-26T00:56:05;2.10;99.90
5176;DHT22;2607;50.934;6.934;2023-02-26T00:58:31;2.10;99.90
5176;DHT22;2607;50.934;6.934;2023-02-26T01:00:56;2.10;99.90
5176;DHT22;2607;50.934;6.934;2023-02-26T01:03:24;2.10;99.90
5176;DHT22;2607;50.934;6.934;2023-02-26T01:05:49;2.10;99.90
5176;DHT22;2607;50.934;6.934;2023-02-26T01:08:43;2.10;99.90
5176;DHT22;2607;50.934;6.934;2023-02-26T01:11:12;2.10;99.90
5176;DHT22;2607;50.934;6.934;2023-02-26T01:13:38;2.10;99.90
5176;DHT22;2607;50.934;6.934;2023-02-26T01:16:10;2.10;99.90
5176;DHT22;2607;50.934;6.934;2023-02-26T01:18:47;2.10;99.90
5176;DHT22;2607;50.934;6.934;2023-02-26T01:21:17;2.10;99.90
5176;DHT22;2607;50.934;6.934;2023-02-26T01:23:46;2.00;99.90
5176;DHT22;2607;50.934;6.934;2023-02-26T01:26:22;2.00;99.90
5176;DHT22;2607;50.934;6.934;2023-02-26T01:28:48;2.00;99.90
5176;DHT22;2607;50.934;6.934;2023-02-26T01:31:34;1.90;99.90
5176;DHT22;2607;50.934;6.934;2023-02-26T01:34:10;1.90;99.90
5176;DHT22;2607;50.934;6.934;2023-02-26T01:37:49;1.90;99.90
5176;DHT22;2607;50.934;6.934;2023-02-26T01:42:45;1.90;99.90
5176;DHT22;2607;50.934;6.934;2023-02-26T01:47:57;1.80;99.90
5176;DHT22;2607;50.934;6.934;2023-02-26T01:50:25;1.80;99.90
5176;DHT22;2607;50.934;6.934;2023-02-26T01:55:44;1.80;99.90
5176;DHT22;2607;50.934;6.934;2023-02-26T01:58:11;1.80;99.90
5176;DHT22;2607;50.934;6.934;2023-02-26T02:00:37;1.80;99.90
5176;DHT22;2607;50.934;6.934;2023-02-26T02:03:03;1.80;99.90
5176;DHT22;2607;50.934;6.934;2023-02-26T02:05:38;1.80;99.90
5176;DHT22;2607;50.934;6.934;2023-02-26T02:08:05;1.80;99.90
5176;DHT22;2607;50.934;6.934;2023-02-26T02:10:31;1.80;99.90
5176;DHT22;2607;50.934;6.934;2023-02-26T02:15:44;1.90;99.90
5176;DHT22;2607;50.934;6.934;2023-02-26T02:18:20;1.90;99.90
5176;DHT22;2607;50.934;6.934;2023-02-26T02:21:11;1.90;99.90
5176;DHT22;2607;50.934;6.934;2023-02-26T02:23:52;1.90;99.90
5176;DHT22;2607;50.934;6.934;2023-02-26T02:32:12;1.90;99.90
5176;DHT22;2607;50.934;6.934;2023-02-26T02:35:06;1.90;99.90
5176;DHT22;2607;50.934;6.934;2023-02-26T02:37:54;1.80;99.90
5176;DHT22;2607;50.934;6.934;2023-02-26T02:40:24;1.80;99.90
5176;DHT22;2607;50.934;6.934;2023-02-26T02:43:08;1.80;99.90
5176;DHT22;2607;50.934;6.934;2023-02-26T02:45:54;1.80;99.90
5176;DHT22;2607;50.934;6.934;2023-02-26T02:48:32;1.80;99.90
5176;DHT22;2607;50.934;6.934;2023-02-26T02:51:02;1.80;99.90
5176;DHT22;2607;50.934;6.934;2023-02-26T02:54:00;1.70;99.90
5176;DHT22;2607;50.934;6.934;2023-02-26T02:56:26;1.70;99.90
5176;DHT22;2607;50.934;6.934;2023-02-26T02:59:10;1.70;99.90
5176;DHT22;2607;50.934;6.934;2023-02-26T03:01:38;1.70;99.90
5176;DHT22;2607;50.934;6.934;2023-02-26T03:04:13;1.60;99.90
5176;DHT22;2607;50.934;6.934;2023-02-26T03:06:39;1.60;99.90
5176;DHT22;2607;50.934;6.934;2023-02-26T03:09:07;1.60;99.90
5176;DHT22;2607;50.934;6.934;2023-02-26T03:11:34;1.60;99.90
5176;DHT22;2607;50.934;6.934;2023-02-26T03:14:00;1.60;99.90
5176;DHT22;2607;50.934;6.934;2023-02-26T03:16:51;1.50;99.90
5176;DHT22;2607;50.934;6.934;2023-02-26T03:19:28;1.50;99.90
5176;DHT22;2607;50.934;6.934;2023-02-26T03:22:05;1.50;99.90
5176;DHT22;2607;50.934;6.934;2023-02-26T03:24:47;1.50;99.90
5176;DHT22;2607;50.934;6.934;2023-02-26T03:27:37;1.40;99.90
5176;DHT22;2607;50.934;6.934;2023-02-26T03:30:21;1.40;99.90
5176;DHT22;2607;50.934;6.934;2023-02-26T03:33:09;1.40;99.90
5176;DHT22;2607;50.934;6.934;2023-02-26T03:35:43;1.40;99.90
5176;DHT22;2607;50.934;6.934;2023-02-26T03:38:18;1.40;99.90
5176;DHT22;2607;50.934;6.934;2023-02-26T03:40:54;1.40;99.90
5176;DHT22;2607;50.934;6.934;2023-02-26T03:43:50;1.30;99.90
5176;DHT22;2607;50.934;6.934;2023-02-26T03:46:18;1.30;99.90
5176;DHT22;2607;50.934;6.934;2023-02-26T03:48:47;1.30;99.90
5176;DHT22;2607;50.934;6.934;2023-02-26T03:51:16;1.30;99.90
5176;DHT22;2607;50.934;6.934;2023-02-26T03:53:48;1.30;99.90
5176;DHT22;2607;50.934;6.934;2023-02-26T03:56:22;1.30;99.90
5176;DHT22;2607;50.934;6.934;2023-02-26T03:58:50;1.20;99.90
5176;DHT22;2607;50.934;6.934;2023-02-26T04:01:21;1.20;99.90
5176;DHT22;2607;50.934;6.934;2023-02-26T04:04:01;1.30;99.90
5176;DHT22;2607;50.934;6.934;2023-02-26T04:06:28;1.30;99.90
5176;DHT22;2607;50.934;6.934;2023-02-26T04:08:54;1.30;99.90
5176;DHT22;2607;50.934;6.934;2023-02-26T04:11:21;1.20;99.90
5176;DHT22;2607;50.934;6.934;2023-02-26T04:13:48;1.20;99.90
5176;DHT22;2607;50.934;6.934;2023-02-26T04:16:15;1.20;99.90
5176;DHT22;2607;50.934;6.934;2023-02-26T04:18:40;1.20;99.90
5176;DHT22;2607;50.934;6.934;2023-02-26T04:21:11;1.20;99.90
5176;DHT22;2607;50.934;6.934;2023-02-26T04:23:36;1.20;99.90
5176;DHT22;2607;50.934;6.934;2023-02-26T04:26:02;1.20;99.90
5176;DHT22;2607;50.934;6.934;2023-02-26T04:28:27;1.20;99.90
5176;DHT22;2607;50.934;6.934;2023-02-26T04:30:54;1.10;99.90
5176;DHT22;2607;50.934;6.934;2023-02-26T04:33:20;1.20;99.90
5176;DHT22;2607;50.934;6.934;2023-02-26T04:35:45;1.20;99.90
5176;DHT22;2607;50.934;6.934;2023-02-26T04:38:11;1.20;99.90
5176;DHT22;2607;50.934;6.934;2023-02-26T04:40:36;1.20;99.90
5176;DHT22;2607;50.934;6.934;2023-02-26T04:43:02;1.20;99.90
5176;DHT22;2607;50.934;6.934;2023-02-26T04:45:27;1.10;99.90
5176;DHT22;2607;50.934;6.934;2023-02-26T04:47:53;1.10;99.90
5176;DHT22;2607;50.934;6.934;2023-02-26T04:50:19;1.10;99.90
5176;DHT22;2607;50.934;6.934;2023-02-26T04:52:44;1.10;99.90
5176;DHT22;2607;50.934;6.934;2023-02-26T04:55:10;1.10;99.90
5176;DHT22;2607;50.934;6.934;2023-02-26T04:57:35;1.10;99.90
5176;DHT22;2607;50.934;6.934;2023-02-26T05:00:01;1.10;99.90
5176;DHT22;2607;50.934;6.934;2023-02-26T05:02:30;1.00;99.90
5176;DHT22;2607;50.934;6.934;2023-02-26T05:04:56;1.00;99.90
5176;DHT22;2607;50.934;6.934;2023-02-26T05:07:21;1.00;99.90
5176;DHT22;2607;50.934;6.934;2023-02-26T05:09:47;1.00;99.90
5176;DHT22;2607;50.934;6.934;2023-02-26T05:12:12;1.00;99.90
5176;DHT22;2607;50.934;6.934;2023-02-26T05:14:38;1.00;99.90
5176;DHT22;2607;50.934;6.934;2023-02-26T05:17:03;1.00;99.90
5176;DHT22;2607;50.934;6.934;2023-02-26T05:19:29;0.90;99.90
5176;DHT22;2607;50.934;6.934;2023-02-26T05:21:54;1.00;99.90
5176;DHT22;2607;50.934;6.934;2023-02-26T05:24:20;1.00;99.90
5176;DHT22;2607;50.934;6.934;2023-02-26T05:26:46;0.90;99.90
5176;DHT22;2607;50.934;6.934;2023-02-26T05:29:11;0.90;99.90
5176;DHT22;2607;50.934;6.934;2023-02-26T05:31:37;0.90;99.90
5176;DHT22;2607;50.934;6.934;2023-02-26T05:34:02;0.90;99.90
5176;DHT22;2607;50.934;6.934;2023-02-26T05:36:28;0.90;99.90
5176;DHT22;2607;50.934;6.934;2023-02-26T05:38:54;0.90;99.90
5176;DHT22;2607;50.934;6.934;2023-02-26T05:41:20;0.90;99.90
5176;DHT22;2607;50.934;6.934;2023-02-26T05:43:45;0.90;99.90
5176;DHT22;2607;50.934;6.934;2023-02-26T05:46:11;0.90;99.90
5176;DHT22;2607;50.934;6.934;2023-02-26T05:48:38;0.90;99.90
5176;DHT22;2607;50.934;6.934;2023-02-26T05:51:03;0.80;99.90
5176;DHT22;2607;50.934;6.934;2023-02-26T05:53:29;0.80;99.90
5176;DHT22;2607;50.934;6.934;2023-02-26T05:55:55;0.80;99.90
5176;DHT22;2607;50.934;6.934;2023-02-26T05:58:20;0.80;99.90
5176;DHT22;2607;50.934;6.934;2023-02-26T06:00:46;0.80;99.90
5176;DHT22;2607;50.934;6.934;2023-02-26T06:03:12;0.90;99.90
5176;DHT22;2607;50.934;6.934;2023-02-26T06:05:37;0.80;99.90
5176;DHT22;2607;50.934;6.934;2023-02-26T06:08:04;0.90;99.90
5176;DHT22;2607;50.934;6.934;2023-02-26T06:10:30;0.90;99.90
5176;DHT22;2607;50.934;6.934;2023-02-26T06:12:55;0.90;99.90
5176;DHT22;2607;50.934;6.934;2023-02-26T06:15:21;0.80;99.90
5176;DHT22;2607;50.934;6.934;2023-02-26T06:17:47;0.90;99.90
5176;DHT22;2607;50.934;6.934;2023-02-26T06:20:13;0.80;99.90
5176;DHT22;2607;50.934;6.934;2023-02-26T06:22:39;0.80;99.90
5176;DHT22;2607;50.934;6.934;2023-02-26T06:25:05;0.80;99.90
5176;DHT22;2607;50.934;6.934;2023-02-26T06:27:31;0.80;99.90
5176;DHT22;2607;50.934;6.934;2023-02-26T06:29:56;0.80;99.90
5176;DHT22;2607;50.934;6.934;2023-02-26T06:32:22;0.80;99.90
5176;DHT22;2607;50.934;6.934;2023-02-26T06:34:47;0.70;99.90
5176;DHT22;2607;50.934;6.934;2023-02-26T06:37:13;0.70;99.90
5176;DHT22;2607;50.934;6.934;2023-02-26T06:39:38;0.70;99.90
5176;DHT22;2607;50.934;6.934;2023-02-26T06:42:04;0.70;99.90
5176;DHT22;2607;50.934;6.934;2023-02-26T06:44:30;0.70;99.90
5176;DHT22;2607;50.934;6.934;2023-02-26T06:46:55;0.70;99.90
5176;DHT22;2607;50.934;6.934;2023-02-26T06:49:21;0.70;99.90
5176;DHT22;2607;50.934;6.934;2023-02-26T06:51:47;0.70;99.90
5176;DHT22;2607;50.934;6.934;2023-02-26T06:54:12;0.70;99.90
5176;DHT22;2607;50.934;6.934;2023-02-26T06:56:38;0.70;99.90
5176;DHT22;2607;50.934;6.934;2023-02-26T06:59:03;0.70;99.90
5176;DHT22;2607;50.934;6.934;2023-02-26T07:01:29;0.70;99.90
5176;DHT22;2607;50.934;6.934;2023-02-26T07:03:56;0.70;99.90
5176;DHT22;2607;50.934;6.934;2023-02-26T07:06:22;0.80;99.90
5176;DHT22;2607;50.934;6.934;2023-02-26T07:08:47;0.80;99.90
5176;DHT22;2607;50.934;6.934;2023-02-26T07:11:13;0.80;99.90
5176;DHT22;2607;50.934;6.934;2023-02-26T07:13:39;0.80;99.90
5176;DHT22;2607;50.934;6.934;2023-02-26T07:16:05;0.80;99.90
5176;DHT22;2607;50.934;6.934;2023-02-26T07:18:33;0.80;99.90
5176;DHT22;2607;50.934;6.934;2023-02-26T07:20:59;0.80;99.90
5176;DHT22;2607;50.934;6.934;2023-02-26T07:23:25;0.80;99.90
5176;DHT22;2607;50.934;6.934;2023-02-26T07:25:50;0.80;99.90
5176;DHT22;2607;50.934;6.934;2023-02-26T07:28:16;0.80;99.90
5176;DHT22;2607;50.934;6.934;2023-02-26T07:30:41;0.90;99.90
5176;DHT22;2607;50.934;6.934;2023-02-26T07:33:07;0.90;99.90
5176;DHT22;2607;50.934;6.934;2023-02-26T07:35:33;0.90;99.90
5176;DHT22;2607;50.934;6.934;2023-02-26T07:37:59;0.90;99.90
5176;DHT22;2607;50.934;6.934;2023-02-26T07:40:25;0.80;99.90
5176;DHT22;2607;50.934;6.934;2023-02-26T07:42:50;0.90;99.90
5176;DHT22;2607;50.934;6.934;2023-02-26T07:45:16;1.00;99.90
5176;DHT22;2607;50.934;6.934;2023-02-26T07:47:47;1.00;99.90
5176;DHT22;2607;50.934;6.934;2023-02-26T07:50:14;1.10;99.90
5176;DHT22;2607;50.934;6.934;2023-02-26T07:52:40;1.10;99.90
5176;DHT22;2607;50.934;6.934;2023-02-26T07:55:06;1.10;99.90
5176;DHT22;2607;50.934;6.934;2023-02-26T07:57:32;1.10;99.90
5176;DHT22;2607;50.934;6.934;2023-02-26T07:59:57;1.10;99.90
5176;DHT22;2607;50.934;6.934;2023-02-26T08:02:23;1.10;99.90
5176;DHT22;2607;50.934;6.934;2023-02-26T08:04:49;1.10;99.90
5176;DHT22;2607;50.934;6.934;2023-02-26T08:07:14;1.00;99.90
5176;DHT22;2607;50.934;6.934;2023-02-26T08:09:40;1.00;99.90
5176;DHT22;2607;50.934;6.934;2023-02-26T08:12:05;1.10;99.90
5176;DHT22;2607;50.934;6.934;2023-02-26T08:14:31;1.00;99.90
5176;DHT22;2607;50.934;6.934;2023-02-26T08:16:56;1.00;99.90
5176;DHT22;2607;50.934;6.934;2023-02-26T08:19:22;1.00;99.90
5176;DHT22;2607;50.934;6.934;2023-02-26T08:21:48;1.10;99.90
5176;DHT22;2607;50.934;6.934;2023-02-26T08:24:13;1.10;99.90
5176;DHT22;2607;50.934;6.934;2023-02-26T08:26:39;1.10;99.90
5176;DHT22;2607;50.934;6.934;2023-02-26T08:29:05;1.10;99.90
5176;DHT22;2607;50.934;6.934;2023-02-26T08:31:30;1.20;99.90
5176;DHT22;2607;50.934;6.934;2023-02-26T08:33:57;1.20;99.90
5176;DHT22;2607;50.934;6.934;2023-02-26T08:36:23;1.20;99.90
5176;DHT22;2607;50.934;6.934;2023-02-26T08:38:49;1.20;99.90
5176;DHT22;2607;50.934;6.934;2023-02-26T08:41:14;1.30;99.90
5176;DHT22;2607;50.934;6.934;2023-02-26T08:43:40;1.30;99.90
5176;DHT22;2607;50.934;6.934;2023-02-26T08:46:05;1.30;99.90
5176;DHT22;2607;50.934;6.934;2023-02-26T08:48:31;1.40;99.90
5176;DHT22;2607;50.934;6.934;2023-02-26T08:50:57;1.40;99.90
5176;DHT22;2607;50.934;6.934;2023-02-26T08:53:22;1.40;99.90
5176;DHT22;2607;50.934;6.934;2023-02-26T08:55:49;1.40;99.90
5176;DHT22;2607;50.934;6.934;2023-02-26T08:58:16;1.50;99.90
5176;DHT22;2607;50.934;6.934;2023-02-26T09:00:42;1.50;99.90
5176;DHT22;2607;50.934;6.934;2023-02-26T09:03:08;1.60;99.90
5176;DHT22;2607;50.934;6.934;2023-02-26T09:05:33;1.60;99.90
5176;DHT22;2607;50.934;6.934;2023-02-26T09:07:59;1.60;99.90
5176;DHT22;2607;50.934;6.934;2023-02-26T09:10:24;1.70;99.90
5176;DHT22;2607;50.934;6.934;2023-02-26T09:12:50;1.70;99.90
5176;DHT22;2607;50.934;6.934;2023-02-26T09:15:15;1.80;99.90
5176;DHT22;2607;50.934;6.934;2023-02-26T09:17:41;1.80;99.90
5176;DHT22;2607;50.934;6.934;2023-02-26T09:20:08;1.90;99.90
5176;DHT22;2607;50.934;6.934;2023-02-26T09:22:34;2.00;99.90
5176;DHT22;2607;50.934;6.934;2023-02-26T09:25:00;2.10;99.80
5176;DHT22;2607;50.934;6.934;2023-02-26T09:27:26;2.00;99.90
5176;DHT22;2607;50.934;6.934;2023-02-26T09:29:51;2.00;99.90
5176;DHT22;2607;50.934;6.934;2023-02-26T09:32:17;2.00;99.90
5176;DHT22;2607;50.934;6.934;2023-02-26T09:34:42;2.00;99.90
5176;DHT22;2607;50.934;6.934;2023-02-26T09:37:09;2.20;99.30
5176;DHT22;2607;50.934;6.934;2023-02-26T09:39:35;2.20;98.40
5176;DHT22;2607;50.934;6.934;2023-02-26T09:42:32;2.20;98.90
5176;DHT22;2607;50.934;6.934;2023-02-26T09:45:02;2.20;98.70
5176;DHT22;2607;50.934;6.934;2023-02-26T09:47:36;2.30;97.50
5176;DHT22;2607;50.934;6.934;2023-02-26T09:50:31;2.30;97.40
5176;DHT22;2607;50.934;6.934;2023-02-26T09:53:25;2.30;96.90
5176;DHT22;2607;50.934;6.934;2023-02-26T09:55:55;2.40;96.90
5176;DHT22;2607;50.934;6.934;2023-02-26T09:58:31;2.40;96.80
5176;DHT22;2607;50.934;6.934;2023-02-26T10:01:22;2.50;97.00
5176;DHT22;2607;50.934;6.934;2023-02-26T10:04:38;2.60;96.10
5176;DHT22;2607;50.934;6.934;2023-02-26T10:07:23;2.80;95.60
5176;DHT22;2607;50.934;6.934;2023-02-26T10:10:06;2.80;95.90
5176;DHT22;2607;50.934;6.934;2023-02-26T10:12:35;3.00;95.60
5176;DHT22;2607;50.934;6.934;2023-02-26T10:15:22;3.00;95.40
5176;DHT22;2607;50.934;6.934;2023-02-26T10:18:08;3.10;95.20
5176;DHT22;2607;50.934;6.934;2023-02-26T10:20:48;3.20;94.80
5176;DHT22;2607;50.934;6.934;2023-02-26T10:23:50;3.20;94.30
5176;DHT22;2607;50.934;6.934;2023-02-26T10:26:18;3.40;92.70
5176;DHT22;2607;50.934;6.934;2023-02-26T10:31:50;3.60;90.90
5176;DHT22;2607;50.934;6.934;2023-02-26T10:43:09;3.40;90.90
5176;DHT22;2607;50.934;6.934;2023-02-26T10:48:51;3.40;90.40
5176;DHT22;2607;50.934;6.934;2023-02-26T10:51:22;3.60;90.00
5176;DHT22;2607;50.934;6.934;2023-02-26T10:54:02;3.60;90.00
5176;DHT22;2607;50.934;6.934;2023-02-26T10:56:31;3.60;89.30
5176;DHT22;2607;50.934;6.934;2023-02-26T10:58:56;3.70;89.90
5176;DHT22;2607;50.934;6.934;2023-02-26T11:01:24;3.70;90.00
5176;DHT22;2607;50.934;6.934;2023-02-26T11:03:55;3.70;88.80
5176;DHT22;2607;50.934;6.934;2023-02-26T11:06:27;3.70;89.00
5176;DHT22;2607;50.934;6.934;2023-02-26T11:08:55;3.60;90.00
5176;DHT22;2607;50.934;6.934;2023-02-26T11:11:38;3.60;89.70
5176;DHT22;2607;50.934;6.934;2023-02-26T11:14:04;3.70;90.20
5176;DHT22;2607;50.934;6.934;2023-02-26T11:16:31;3.80;88.50
5176;DHT22;2607;50.934;6.934;2023-02-26T11:18:59;3.70;89.50
5176;DHT22;2607;50.934;6.934;2023-02-26T11:21:37;3.60;90.00
5176;DHT22;2607;50.934;6.934;2023-02-26T11:24:09;3.60;90.10
5176;DHT22;2607;50.934;6.934;2023-02-26T11:26:36;3.50;90.00
5176;DHT22;2607;50.934;6.934;2023-02-26T11:29:03;3.50;90.10
5176;DHT22;2607;50.934;6.934;2023-02-26T11:31:29;3.40;90.60
5176;DHT22;2607;50.934;6.934;2023-02-26T11:34:06;3.30;90.90
5176;DHT22;2607;50.934;6.934;2023-02-26T11:36:38;3.30;90.90
5176;DHT22;2607;50.934;6.934;2023-02-26T11:39:14;3.40;90.40
5176;DHT22;2607;50.934;6.934;2023-02-26T11:41:40;3.40;90.40
5176;DHT22;2607;50.934;6.934;2023-02-26T11:44:40;3.50;89.50
5176;DHT22;2607;50.934;6.934;2023-02-26T11:47:11;3.40;90.00
5176;DHT22;2607;50.934;6.934;2023-02-26T11:49:45;3.50;90.10
5176;DHT22;2607;50.934;6.934;2023-02-26T11:52:28;3.60;90.30
5176;DHT22;2607;50.934;6.934;2023-02-26T11:55:16;3.70;88.00
5176;DHT22;2607;50.934;6.934;2023-02-26T11:57:42;3.90;85.70
5176;DHT22;2607;50.934;6.934;2023-02-26T12:00:22;4.00;84.20
5176;DHT22;2607;50.934;6.934;2023-02-26T12:02:48;3.90;84.40
5176;DHT22;2607;50.934;6.934;2023-02-26T12:05:16;3.80;85.10
5176;DHT22;2607;50.934;6.934;2023-02-26T12:07:42;3.70;85.60
5176;DHT22;2607;50.934;6.934;2023-02-26T12:10:23;3.60;86.10
5176;DHT22;2607;50.934;6.934;2023-02-26T12:13:11;3.50;86.00
5176;DHT22;2607;50.934;6.934;2023-02-26T12:18:58;3.40;87.70
5176;DHT22;2607;50.934;6.934;2023-02-26T12:32:27;3.70;85.60
5176;DHT22;2607;50.934;6.934;2023-02-26T12:46:01;5.30;78.80
5176;DHT22;2607;50.934;6.934;2023-02-26T12:51:54;5.20;77.50
5176;DHT22;2607;50.934;6.934;2023-02-26T13:07:49;5.00;77.00
5176;DHT22;2607;50.934;6.934;2023-02-26T13:13:15;4.90;76.20
5176;DHT22;2607;50.934;6.934;2023-02-26T13:15:58;4.80;76.70
5176;DHT22;2607;50.934;6.934;2023-02-26T13:18:42;4.60;77.30
5176;DHT22;2607;50.934;6.934;2023-02-26T13:21:21;4.40;78.60
5176;DHT22;2607;50.934;6.934;2023-02-26T13:23:56;4.30;77.40
5176;DHT22;2607;50.934;6.934;2023-02-26T13:26:25;4.20;78.40
5176;DHT22;2607;50.934;6.934;2023-02-26T13:29:13;4.20;78.50
5176;DHT22;2607;50.934;6.934;2023-02-26T13:32:14;4.20;78.40
5176;DHT22;2607;50.934;6.934;2023-02-26T13:34:52;4.30;76.20
5176;DHT22;2607;50.934;6.934;2023-02-26T13:37:36;4.30;74.20
5176;DHT22;2607;50.934;6.934;2023-02-26T13:40:24;4.10;75.80
5176;DHT22;2607;50.934;6.934;2023-02-26T13:43:28;4.00;77.70
5176;DHT22;2607;50.934;6.934;2023-02-26T13:51:09;4.30;78.20
5176;DHT22;2607;50.934;6.934;2023-02-26T13:58:54;4.40;77.60
5176;DHT22;2607;50.934;6.934;2023-02-26T14:01:32;4.40;76.50
5176;DHT22;2607;50.934;6.934;2023-02-26T14:06:52;4.40;76.40
5176;DHT22;2607;50.934;6.934;2023-02-26T14:12:03;4.40;76.40
5176;DHT22;2607;50.934;6.934;2023-02-26T14:17:49;4.40;77.20
5176;DHT22;2607;50.934;6.934;2023-02-26T14:20:26;4.30;76.50
5176;DHT22;2607;50.934;6.934;2023-02-26T14:28:33;4.40;75.10
5176;DHT22;2607;50.934;6.934;2023-02-26T14:31:13;4.40;75.30
5176;DHT22;2607;50.934;6.934;2023-02-26T14:33:46;4.40;75.60
5176;DHT22;2607;50.934;6.934;2023-02-26T14:36:26;4.40;76.40
5176;DHT22;2607;50.934;6.934;2023-02-26T14:38:53;4.30;76.60
5176;DHT22;2607;50.934;6.934;2023-02-26T14:43:57;4.40;76.10
5176;DHT22;2607;50.934;6.934;2023-02-26T14:46:24;4.30;76.50
5176;DHT22;2607;50.934;6.934;2023-02-26T14:48:50;4.30;77.20
5176;DHT22;2607;50.934;6.934;2023-02-26T14:51:34;4.30;77.90
5176;DHT22;2607;50.934;6.934;2023-02-26T15:14:17;4.30;74.00
5176;DHT22;2607;50.934;6.934;2023-02-26T15:17:21;4.30;85.10
5176;DHT22;2607;50.934;6.934;2023-02-26T15:25:30;4.30;80.50
5176;DHT22;2607;50.934;6.934;2023-02-26T15:27:57;4.30;79.30
5176;DHT22;2607;50.934;6.934;2023-02-26T15:30:23;4.40;77.80
5176;DHT22;2607;50.934;6.934;2023-02-26T15:32:56;4.50;76.90
5176;DHT22;2607;50.934;6.934;2023-02-26T15:35:22;4.40;77.50
5176;DHT22;2607;50.934;6.934;2023-02-26T15:37:53;4.30;78.00
5176;DHT22;2607;50.934;6.934;2023-02-26T15:40:21;4.40;77.20
5176;DHT22;2607;50.934;6.934;2023-02-26T15:42:53;4.40;76.60
5176;DHT22;2607;50.934;6.934;2023-02-26T15:45:27;4.40;75.30
5176;DHT22;2607;50.934;6.934;2023-02-26T15:47:56;4.40;74.30
5176;DHT22;2607;50.934;6.934;2023-02-26T15:50:27;4.40;74.60
5176;DHT22;2607;50.934;6.934;2023-02-26T15:52:57;4.30;74.60
5176;DHT22;2607;50.934;6.934;2023-02-26T15:55:24;4.20;75.30
5176;DHT22;2607;50.934;6.934;2023-02-26T15:57:50;4.20;75.90
5176;DHT22;2607;50.934;6.934;2023-02-26T16:00:19;4.10;76.60
5176;DHT22;2607;50.934;6.934;2023-02-26T16:02:55;4.10;77.10
5176;DHT22;2607;50.934;6.934;2023-02-26T16:05:25;4.00;77.10
5176;DHT22;2607;50.934;6.934;2023-02-26T16:07:50;4.20;77.30
5176;DHT22;2607;50.934;6.934;2023-02-26T16:10:38;4.30;76.60
5176;DHT22;2607;50.934;6.934;2023-02-26T16:13:06;4.30;76.10
5176;DHT22;2607;50.934;6.934;2023-02-26T16:15:37;4.20;76.40
5176;DHT22;2607;50.934;6.934;2023-02-26T16:18:12;4.20;76.60
5176;DHT22;2607;50.934;6.934;2023-02-26T16:20:44;4.10;76.90
5176;DHT22;2607;50.934;6.934;2023-02-26T16:23:23;4.20;76.70
5176;DHT22;2607;50.934;6.934;2023-02-26T16:25:57;4.10;77.30
5176;DHT22;2607;50.934;6.934;2023-02-26T16:28:28;4.10;77.40
5176;DHT22;2607;50.934;6.934;2023-02-26T16:30:57;4.10;77.20
5176;DHT22;2607;50.934;6.934;2023-02-26T16:33:25;4.00;77.20
5176;DHT22;2607;50.934;6.934;2023-02-26T16:36:03;4.00;78.10
5176;DHT22;2607;50.934;6.934;2023-02-26T16:38:44;4.00;78.00
5176;DHT22;2607;50.934;6.934;2023-02-26T16:41:11;3.90;78.20
5176;DHT22;2607;50.934;6.934;2023-02-26T16:46:38;3.90;78.40
5176;DHT22;2607;50.934;6.934;2023-02-26T16:49:36;3.90;78.50
5176;DHT22;2607;50.934;6.934;2023-02-26T16:52:04;3.90;77.80
5176;DHT22;2607;50.934;6.934;2023-02-26T16:54:33;3.90;77.90
5176;DHT22;2607;50.934;6.934;2023-02-26T16:57:38;3.90;77.80
5176;DHT22;2607;50.934;6.934;2023-02-26T16:59:57;3.90;78.40
5176;DHT22;2607;50.934;6.934;2023-02-26T17:02:30;3.80;78.80
5176;DHT22;2607;50.934;6.934;2023-02-26T17:05:20;3.90;79.40
5176;DHT22;2607;50.934;6.934;2023-02-26T17:07:51;3.80;79.50
5176;DHT22;2607;50.934;6.934;2023-02-26T17:10:30;3.80;80.20
5176;DHT22;2607;50.934;6.934;2023-02-26T17:13:47;3.70;80.40
5176;DHT22;2607;50.934;6.934;2023-02-26T17:15:48;3.70;80.70
5176;DHT22;2607;50.934;6.934;2023-02-26T17:18:15;3.70;81.10
5176;DHT22;2607;50.934;6.934;2023-02-26T17:20:41;3.70;81.50
5176;DHT22;2607;50.934;6.934;2023-02-26T17:23:08;3.70;81.80
5176;DHT22;2607;50.934;6.934;2023-02-26T17:25:40;3.70;82.20
5176;DHT22;2607;50.934;6.934;2023-02-26T17:28:07;3.70;82.20
5176;DHT22;2607;50.934;6.934;2023-02-26T17:30:34;3.60;82.50
5176;DHT22;2607;50.934;6.934;2023-02-26T17:33:01;3.60;82.80
5176;DHT22;2607;50.934;6.934;2023-02-26T17:35:28;3.60;82.90
5176;DHT22;2607;50.934;6.934;2023-02-26T17:37:56;3.50;82.90
5176;DHT22;2607;50.934;6.934;2023-02-26T17:40:29;3.50;83.50
5176;DHT22;2607;50.934;6.934;2023-02-26T17:43:03;3.50;83.70
5176;DHT22;2607;50.934;6.934;2023-02-26T17:45:30;3.50;84.10
5176;DHT22;2607;50.934;6.934;2023-02-26T17:47:56;3.50;84.00
5176;DHT22;2607;50.934;6.934;2023-02-26T17:52:48;3.40;84.90
5176;DHT22;2607;50.934;6.934;2023-02-26T17:55:13;3.40;84.90
5176;DHT22;2607;50.934;6.934;2023-02-26T17:57:39;3.40;85.30
5176;DHT22;2607;50.934;6.934;2023-02-26T18:00:05;3.40;85.60
5176;DHT22;2607;50.934;6.934;2023-02-26T18:02:31;3.40;86.00
5176;DHT22;2607;50.934;6.934;2023-02-26T18:04:56;3.30;86.30
5176;DHT22;2607;50.934;6.934;2023-02-26T18:07:22;3.30;86.30
5176;DHT22;2607;50.934;6.934;2023-02-26T18:09:49;3.30;86.40
5176;DHT22;2607;50.934;6.934;2023-02-26T18:12:21;3.30;86.60
5176;DHT22;2607;50.934;6.934;2023-02-26T18:14:46;3.30;86.80
5176;DHT22;2607;50.934;6.934;2023-02-26T18:17:14;3.30;86.60
5176;DHT22;2607;50.934;6.934;2023-02-26T18:19:40;3.30;86.60
5176;DHT22;2607;50.934;6.934;2023-02-26T18:22:13;3.30;86.60
5176;DHT22;2607;50.934;6.934;2023-02-26T18:24:39;3.30;87.00
5176;DHT22;2607;50.934;6.934;2023-02-26T18:27:06;3.30;87.20
5176;DHT22;2607;50.934;6.934;2023-02-26T18:29:31;3.20;87.20
5176;DHT22;2607;50.934;6.934;2023-02-26T18:31:57;3.30;87.20
5176;DHT22;2607;50.934;6.934;2023-02-26T18:34:24;3.20;86.90
5176;DHT22;2607;50.934;6.934;2023-02-26T18:36:50;3.30;87.20
5176;DHT22;2607;50.934;6.934;2023-02-26T18:39:16;3.30;87.30
5176;DHT22;2607;50.934;6.934;2023-02-26T18:41:44;3.20;87.40
5176;DHT22;2607;50.934;6.934;2023-02-26T18:44:10;3.20;87.40
5176;DHT22;2607;50.934;6.934;2023-02-26T18:46:35;3.20;87.60
5176;DHT22;2607;50.934;6.934;2023-02-26T18:49:05;3.20;87.80
5176;DHT22;2607;50.934;6.934;2023-02-26T18:51:31;3.20;87.60
5176;DHT22;2607;50.934;6.934;2023-02-26T18:53:57;3.10;87.50
5176;DHT22;2607;50.934;6.934;2023-02-26T18:56:23;3.20;87.50
5176;DHT22;2607;50.934;6.934;2023-02-26T18:58:48;3.10;87.70
5176;DHT22;2607;50.934;6.934;2023-02-26T19:01:14;3.10;88.10